sensor_id;sensor_type;location;lat;lon;timestamp;P1;durP1;ratioP1;P2;durP2;ratioP2
42244;SDS011;27912;51.828;5.688;2023-02-28T00:00:12;8.32;;;2.47;;
42244;SDS011;27912;51.828;5.688;2023-02-28T00:02:39;6.57;;;2.83;;
42244;SDS011;27912;51.828;5.688;2023-02-28T00:05:06;5.75;;;3.03;;
42244;SDS011;27912;51.828;5.688;2023-02-28T00:07:32;7.07;;;2.90;;
42244;SDS011;27912;51.828;5.688;2023-02-28T00:09:58;6.60;;;2.92;;
42244;SDS011;27912;51.828;5.688;2023-02-28T00:12:24;4.68;;;2.03;;
42244;SDS011;27912;51.828;5.688;2023-02-28T00:14:50;6.65;;;2.72;;
42244;SDS011;27912;51.828;5.688;2023-02-28T00:17:16;5.25;;;2.58;;
42244;SDS011;27912;51.828;5.688;2023-02-28T00:19:46;7.70;;;2.72;;
42244;SDS011;27912;51.828;5.688;2023-02-28T00:22:13;7.88;;;3.10;;
42244;SDS011;27912;51.828;5.688;2023-02-28T00:24:39;5.30;;;2.60;;
42244;SDS011;27912;51.828;5.688;2023-02-28T00:27:04;7.70;;;3.08;;
42244;SDS011;27912;51.828;5.688;2023-02-28T00:29:30;7.03;;;3.42;;
42244;SDS011;27912;51.828;5.688;2023-02-28T00:31:56;10.88;;;3.55;;
42244;SDS011;27912;51.828;5.688;2023-02-28T00:34:21;6.68;;;3.28;;
42244;SDS011;27912;51.828;5.688;2023-02-28T00:36:47;8.07;;;2.80;;
42244;SDS011;27912;51.828;5.688;2023-02-28T00:39:15;7.65;;;2.97;;
42244;SDS011;27912;51.828;5.688;2023-02-28T00:41:41;7.35;;;3.42;;
42244;SDS011;27912;51.828;5.688;2023-02-28T00:44:07;8.43;;;3.10;;
42244;SDS011;27912;51.828;5.688;2023-02-28T00:46:33;8.30;;;3.53;;
42244;SDS011;27912;51.828;5.688;2023-02-28T00:48:58;5.68;;;3.22;;
42244;SDS011;27912;51.828;5.688;2023-02-28T00:51:24;6.50;;;3.53;;
42244;SDS011;27912;51.828;5.688;2023-02-28T00:53:49;5.93;;;2.97;;
42244;SDS011;27912;51.828;5.688;2023-02-28T00:56:15;6.78;;;3.13;;
42244;SDS011;27912;51.828;5.688;2023-02-28T00:58:40;8.57;;;2.88;;
42244;SDS011;27912;51.828;5.688;2023-02-28T01:01:06;6.72;;;3.70;;
42244;SDS011;27912;51.828;5.688;2023-02-28T01:03:32;5.95;;;2.08;;
42244;SDS011;27912;51.828;5.688;2023-02-28T01:05:57;5.30;;;2.83;;
42244;SDS011;27912;51.828;5.688;2023-02-28T01:08:23;5.93;;;2.97;;
42244;SDS011;27912;51.828;5.688;2023-02-28T01:10:49;5.80;;;2.40;;
42244;SDS011;27912;51.828;5.688;2023-02-28T01:13:15;6.38;;;3.30;;
42244;SDS011;27912;51.828;5.688;2023-02-28T01:15:43;9.15;;;3.15;;
42244;SDS011;27912;51.828;5.688;2023-02-28T01:18:15;6.82;;;2.65;;
42244;SDS011;27912;51.828;5.688;2023-02-28T01:20:42;6.32;;;3.33;;
42244;SDS011;27912;51.828;5.688;2023-02-28T01:23:08;7.90;;;3.00;;
42244;SDS011;27912;51.828;5.688;2023-02-28T01:25:34;8.20;;;2.35;;
42244;SDS011;27912;51.828;5.688;2023-02-28T01:28:00;7.40;;;3.17;;
42244;SDS011;27912;51.828;5.688;2023-02-28T01:30:26;5.15;;;3.13;;
42244;SDS011;27912;51.828;5.688;2023-02-28T01:32:51;8.57;;;3.60;;
42244;SDS011;27912;51.828;5.688;2023-02-28T01:35:18;6.97;;;2.75;;
42244;SDS011;27912;51.828;5.688;2023-02-28T01:37:44;11.32;;;3.58;;
42244;SDS011;27912;51.828;5.688;2023-02-28T01:40:10;8.93;;;3.58;;
42244;SDS011;27912;51.828;5.688;2023-02-28T01:42:39;8.88;;;3.28;;
42244;SDS011;27912;51.828;5.688;2023-02-28T01:45:16;7.00;;;3.33;;
42244;SDS011;27912;51.828;5.688;2023-02-28T01:47:54;5.68;;;2.83;;
42244;SDS011;27912;51.828;5.688;2023-02-28T01:50:24;6.13;;;2.97;;
42244;SDS011;27912;51.828;5.688;2023-02-28T01:52:55;6.47;;;2.73;;
42244;SDS011;27912;51.828;5.688;2023-02-28T01:55:24;7.20;;;2.97;;
42244;SDS011;27912;51.828;5.688;2023-02-28T01:57:54;7.38;;;3.30;;
42244;SDS011;27912;51.828;5.688;2023-02-28T02:00:23;7.07;;;2.75;;
42244;SDS011;27912;51.828;5.688;2023-02-28T02:02:53;8.07;;;3.50;;
42244;SDS011;27912;51.828;5.688;2023-02-28T02:05:22;5.65;;;2.72;;
42244;SDS011;27912;51.828;5.688;2023-02-28T02:07:54;6.68;;;3.00;;
42244;SDS011;27912;51.828;5.688;2023-02-28T02:10:24;6.93;;;2.80;;
42244;SDS011;27912;51.828;5.688;2023-02-28T02:12:59;8.18;;;2.90;;
42244;SDS011;27912;51.828;5.688;2023-02-28T02:18:42;8.77;;;3.85;;
42244;SDS011;27912;51.828;5.688;2023-02-28T02:30:21;8.15;;;4.43;;
42244;SDS011;27912;51.828;5.688;2023-02-28T02:33:09;8.98;;;3.08;;
42244;SDS011;27912;51.828;5.688;2023-02-28T02:35:53;5.78;;;3.45;;
42244;SDS011;27912;51.828;5.688;2023-02-28T02:38:27;11.75;;;3.72;;
42244;SDS011;27912;51.828;5.688;2023-02-28T02:41:09;10.02;;;3.13;;
42244;SDS011;27912;51.828;5.688;2023-02-28T02:43:46;8.95;;;3.92;;
42244;SDS011;27912;51.828;5.688;2023-02-28T02:51:26;8.40;;;3.85;;
42244;SDS011;27912;51.828;5.688;2023-02-28T02:54:03;12.00;;;4.07;;
42244;SDS011;27912;51.828;5.688;2023-02-28T02:56:33;6.63;;;3.67;;
42244;SDS011;27912;51.828;5.688;2023-02-28T02:59:02;8.35;;;4.13;;
42244;SDS011;27912;51.828;5.688;2023-02-28T03:01:31;6.00;;;3.50;;
42244;SDS011;27912;51.828;5.688;2023-02-28T03:04:07;8.65;;;3.83;;
42244;SDS011;27912;51.828;5.688;2023-02-28T03:06:38;7.28;;;3.50;;
42244;SDS011;27912;51.828;5.688;2023-02-28T03:09:04;6.93;;;4.32;;
42244;SDS011;27912;51.828;5.688;2023-02-28T03:11:30;8.95;;;4.38;;
42244;SDS011;27912;51.828;5.688;2023-02-28T03:16:52;7.72;;;4.38;;
42244;SDS011;27912;51.828;5.688;2023-02-28T03:24:57;12.07;;;4.88;;
42244;SDS011;27912;51.828;5.688;2023-02-28T03:30:39;9.38;;;4.32;;
42244;SDS011;27912;51.828;5.688;2023-02-28T03:33:15;10.00;;;4.82;;
42244;SDS011;27912;51.828;5.688;2023-02-28T03:35:50;9.43;;;4.30;;
42244;SDS011;27912;51.828;5.688;2023-02-28T03:38:33;8.02;;;4.60;;
42244;SDS011;27912;51.828;5.688;2023-02-28T03:41:06;8.98;;;4.18;;
42244;SDS011;27912;51.828;5.688;2023-02-28T03:43:56;9.52;;;4.45;;
42244;SDS011;27912;51.828;5.688;2023-02-28T03:46:27;9.93;;;4.57;;
42244;SDS011;27912;51.828;5.688;2023-02-28T03:49:03;7.93;;;3.88;;
42244;SDS011;27912;51.828;5.688;2023-02-28T03:51:37;9.00;;;3.72;;
42244;SDS011;27912;51.828;5.688;2023-02-28T03:54:06;7.07;;;3.75;;
42244;SDS011;27912;51.828;5.688;2023-02-28T03:56:40;7.72;;;3.92;;
42244;SDS011;27912;51.828;5.688;2023-02-28T03:59:28;9.00;;;4.38;;
42244;SDS011;27912;51.828;5.688;2023-02-28T04:01:57;10.15;;;3.88;;
42244;SDS011;27912;51.828;5.688;2023-02-28T04:04:24;10.40;;;4.28;;
42244;SDS011;27912;51.828;5.688;2023-02-28T04:06:50;6.32;;;3.45;;
42244;SDS011;27912;51.828;5.688;2023-02-28T04:09:16;8.98;;;4.35;;
42244;SDS011;27912;51.828;5.688;2023-02-28T04:11:44;8.80;;;4.15;;
42244;SDS011;27912;51.828;5.688;2023-02-28T04:14:12;7.30;;;3.80;;
42244;SDS011;27912;51.828;5.688;2023-02-28T04:16:38;8.02;;;3.97;;
42244;SDS011;27912;51.828;5.688;2023-02-28T04:19:06;7.82;;;3.42;;
42244;SDS011;27912;51.828;5.688;2023-02-28T04:21:36;6.10;;;4.28;;
42244;SDS011;27912;51.828;5.688;2023-02-28T04:24:10;6.47;;;3.25;;
42244;SDS011;27912;51.828;5.688;2023-02-28T04:26:45;7.65;;;4.25;;
42244;SDS011;27912;51.828;5.688;2023-02-28T04:29:12;8.38;;;4.80;;
42244;SDS011;27912;51.828;5.688;2023-02-28T04:31:39;6.60;;;4.00;;
42244;SDS011;27912;51.828;5.688;2023-02-28T04:34:05;7.35;;;3.28;;
42244;SDS011;27912;51.828;5.688;2023-02-28T04:36:31;8.15;;;3.80;;
42244;SDS011;27912;51.828;5.688;2023-02-28T04:38:57;8.65;;;4.13;;
42244;SDS011;27912;51.828;5.688;2023-02-28T04:41:22;10.50;;;4.28;;
42244;SDS011;27912;51.828;5.688;2023-02-28T04:43:48;7.78;;;4.10;;
42244;SDS011;27912;51.828;5.688;2023-02-28T04:46:16;7.78;;;3.90;;
42244;SDS011;27912;51.828;5.688;2023-02-28T04:48:43;9.27;;;3.80;;
42244;SDS011;27912;51.828;5.688;2023-02-28T04:51:10;10.07;;;3.90;;
42244;SDS011;27912;51.828;5.688;2023-02-28T04:53:38;7.55;;;3.53;;
42244;SDS011;27912;51.828;5.688;2023-02-28T04:56:05;10.55;;;3.78;;
42244;SDS011;27912;51.828;5.688;2023-02-28T04:58:32;9.77;;;3.25;;
42244;SDS011;27912;51.828;5.688;2023-02-28T05:01:05;6.78;;;3.47;;
42244;SDS011;27912;51.828;5.688;2023-02-28T05:03:40;5.88;;;3.42;;
42244;SDS011;27912;51.828;5.688;2023-02-28T05:06:05;5.43;;;3.08;;
42244;SDS011;27912;51.828;5.688;2023-02-28T05:08:32;10.13;;;3.17;;
42244;SDS011;27912;51.828;5.688;2023-02-28T05:10:58;7.93;;;3.10;;
42244;SDS011;27912;51.828;5.688;2023-02-28T05:13:25;7.10;;;2.88;;
42244;SDS011;27912;51.828;5.688;2023-02-28T05:15:51;6.55;;;2.63;;
42244;SDS011;27912;51.828;5.688;2023-02-28T05:18:17;10.30;;;3.05;;
42244;SDS011;27912;51.828;5.688;2023-02-28T05:20:42;5.88;;;2.83;;
42244;SDS011;27912;51.828;5.688;2023-02-28T05:23:08;6.80;;;2.90;;
42244;SDS011;27912;51.828;5.688;2023-02-28T05:25:37;5.05;;;2.20;;
42244;SDS011;27912;51.828;5.688;2023-02-28T05:28:03;6.95;;;3.00;;
42244;SDS011;27912;51.828;5.688;2023-02-28T05:30:29;5.72;;;2.80;;
42244;SDS011;27912;51.828;5.688;2023-02-28T05:32:56;6.30;;;2.55;;
42244;SDS011;27912;51.828;5.688;2023-02-28T05:35:22;4.70;;;1.85;;
42244;SDS011;27912;51.828;5.688;2023-02-28T05:37:48;5.03;;;2.40;;
42244;SDS011;27912;51.828;5.688;2023-02-28T05:40:14;5.45;;;2.47;;
42244;SDS011;27912;51.828;5.688;2023-02-28T05:42:40;4.93;;;1.95;;
42244;SDS011;27912;51.828;5.688;2023-02-28T05:45:07;3.83;;;1.80;;
42244;SDS011;27912;51.828;5.688;2023-02-28T05:47:34;5.10;;;1.65;;
42244;SDS011;27912;51.828;5.688;2023-02-28T05:50:00;2.90;;;1.50;;
42244;SDS011;27912;51.828;5.688;2023-02-28T05:52:26;5.38;;;1.52;;
42244;SDS011;27912;51.828;5.688;2023-02-28T05:54:52;5.00;;;1.15;;
42244;SDS011;27912;51.828;5.688;2023-02-28T05:57:18;3.40;;;1.13;;
42244;SDS011;27912;51.828;5.688;2023-02-28T05:59:44;7.30;;;1.35;;
42244;SDS011;27912;51.828;5.688;2023-02-28T06:02:13;2.47;;;1.23;;
42244;SDS011;27912;51.828;5.688;2023-02-28T06:04:39;3.67;;;1.30;;
42244;SDS011;27912;51.828;5.688;2023-02-28T06:07:06;5.60;;;1.35;;
42244;SDS011;27912;51.828;5.688;2023-02-28T06:09:32;2.33;;;1.00;;
42244;SDS011;27912;51.828;5.688;2023-02-28T06:11:58;2.88;;;1.17;;
42244;SDS011;27912;51.828;5.688;2023-02-28T06:14:25;3.20;;;0.90;;
42244;SDS011;27912;51.828;5.688;2023-02-28T06:16:50;4.82;;;0.93;;
42244;SDS011;27912;51.828;5.688;2023-02-28T06:19:16;3.15;;;0.85;;
42244;SDS011;27912;51.828;5.688;2023-02-28T06:21:42;2.25;;;0.75;;
42244;SDS011;27912;51.828;5.688;2023-02-28T06:24:08;4.43;;;0.90;;
42244;SDS011;27912;51.828;5.688;2023-02-28T06:26:34;4.82;;;0.88;;
42244;SDS011;27912;51.828;5.688;2023-02-28T06:29:00;7.18;;;0.90;;
42244;SDS011;27912;51.828;5.688;2023-02-28T06:31:26;3.00;;;0.80;;
42244;SDS011;27912;51.828;5.688;2023-02-28T06:33:54;2.30;;;0.70;;
42244;SDS011;27912;51.828;5.688;2023-02-28T06:36:20;3.47;;;1.08;;
42244;SDS011;27912;51.828;5.688;2023-02-28T06:38:45;5.57;;;1.27;;
42244;SDS011;27912;51.828;5.688;2023-02-28T06:41:16;3.53;;;0.90;;
42244;SDS011;27912;51.828;5.688;2023-02-28T06:43:42;5.78;;;1.10;;
42244;SDS011;27912;51.828;5.688;2023-02-28T06:46:10;5.03;;;0.90;;
42244;SDS011;27912;51.828;5.688;2023-02-28T06:48:37;4.25;;;0.90;;
42244;SDS011;27912;51.828;5.688;2023-02-28T06:51:10;9.10;;;1.15;;
42244;SDS011;27912;51.828;5.688;2023-02-28T06:53:40;3.20;;;0.82;;
42244;SDS011;27912;51.828;5.688;2023-02-28T06:56:07;4.03;;;1.23;;
42244;SDS011;27912;51.828;5.688;2023-02-28T06:58:34;2.78;;;0.93;;
42244;SDS011;27912;51.828;5.688;2023-02-28T07:01:00;4.32;;;1.45;;
42244;SDS011;27912;51.828;5.688;2023-02-28T07:03:26;3.63;;;1.23;;
42244;SDS011;27912;51.828;5.688;2023-02-28T07:05:51;3.47;;;0.60;;
42244;SDS011;27912;51.828;5.688;2023-02-28T07:08:17;4.50;;;1.02;;
42244;SDS011;27912;51.828;5.688;2023-02-28T07:10:43;3.42;;;0.98;;
42244;SDS011;27912;51.828;5.688;2023-02-28T07:13:09;11.45;;;1.00;;
42244;SDS011;27912;51.828;5.688;2023-02-28T07:15:35;5.30;;;0.77;;
42244;SDS011;27912;51.828;5.688;2023-02-28T07:18:02;3.45;;;0.93;;
42244;SDS011;27912;51.828;5.688;2023-02-28T07:20:28;7.15;;;1.38;;
42244;SDS011;27912;51.828;5.688;2023-02-28T07:22:54;3.65;;;0.98;;
42244;SDS011;27912;51.828;5.688;2023-02-28T07:25:23;3.42;;;1.10;;
42244;SDS011;27912;51.828;5.688;2023-02-28T07:27:49;2.85;;;1.13;;
42244;SDS011;27912;51.828;5.688;2023-02-28T07:30:15;6.32;;;1.20;;
42244;SDS011;27912;51.828;5.688;2023-02-28T07:32:41;4.35;;;0.82;;
42244;SDS011;27912;51.828;5.688;2023-02-28T07:35:06;4.63;;;1.40;;
42244;SDS011;27912;51.828;5.688;2023-02-28T07:37:32;5.05;;;1.00;;
42244;SDS011;27912;51.828;5.688;2023-02-28T07:40:01;3.97;;;1.17;;
42244;SDS011;27912;51.828;5.688;2023-02-28T07:42:31;3.60;;;1.33;;
42244;SDS011;27912;51.828;5.688;2023-02-28T07:44:57;4.80;;;1.40;;
42244;SDS011;27912;51.828;5.688;2023-02-28T07:47:23;4.53;;;1.70;;
42244;SDS011;27912;51.828;5.688;2023-02-28T07:49:49;5.35;;;1.50;;
42244;SDS011;27912;51.828;5.688;2023-02-28T07:52:15;4.60;;;1.48;;
42244;SDS011;27912;51.828;5.688;2023-02-28T07:54:40;5.78;;;1.45;;
42244;SDS011;27912;51.828;5.688;2023-02-28T07:57:06;5.18;;;1.17;;
42244;SDS011;27912;51.828;5.688;2023-02-28T07:59:31;3.45;;;1.30;;
42244;SDS011;27912;51.828;5.688;2023-02-28T08:01:57;5.55;;;1.73;;
42244;SDS011;27912;51.828;5.688;2023-02-28T08:04:23;3.08;;;1.20;;
42244;SDS011;27912;51.828;5.688;2023-02-28T08:06:49;3.28;;;1.30;;
42244;SDS011;27912;51.828;5.688;2023-02-28T08:09:16;5.03;;;0.88;;
42244;SDS011;27912;51.828;5.688;2023-02-28T08:11:42;4.82;;;1.30;;
42244;SDS011;27912;51.828;5.688;2023-02-28T08:14:08;2.75;;;0.90;;
42244;SDS011;27912;51.828;5.688;2023-02-28T08:16:33;3.67;;;1.05;;
42244;SDS011;27912;51.828;5.688;2023-02-28T08:18:59;2.15;;;0.63;;
42244;SDS011;27912;51.828;5.688;2023-02-28T08:21:24;1.65;;;0.68;;
42244;SDS011;27912;51.828;5.688;2023-02-28T08:23:50;2.90;;;0.98;;
42244;SDS011;27912;51.828;5.688;2023-02-28T08:26:16;2.03;;;0.70;;
42244;SDS011;27912;51.828;5.688;2023-02-28T08:28:43;2.50;;;0.55;;
42244;SDS011;27912;51.828;5.688;2023-02-28T08:31:10;1.10;;;0.50;;
42244;SDS011;27912;51.828;5.688;2023-02-28T08:33:38;2.25;;;0.75;;
42244;SDS011;27912;51.828;5.688;2023-02-28T08:36:04;1.90;;;0.52;;
42244;SDS011;27912;51.828;5.688;2023-02-28T08:38:30;3.85;;;0.50;;
42244;SDS011;27912;51.828;5.688;2023-02-28T08:41:03;2.25;;;0.50;;
42244;SDS011;27912;51.828;5.688;2023-02-28T08:43:32;1.45;;;0.43;;
42244;SDS011;27912;51.828;5.688;2023-02-28T08:45:58;2.05;;;0.50;;
42244;SDS011;27912;51.828;5.688;2023-02-28T08:48:24;2.25;;;0.60;;
42244;SDS011;27912;51.828;5.688;2023-02-28T08:50:58;1.20;;;0.50;;
42244;SDS011;27912;51.828;5.688;2023-02-28T08:53:26;1.13;;;0.40;;
42244;SDS011;27912;51.828;5.688;2023-02-28T08:55:55;1.77;;;0.68;;
42244;SDS011;27912;51.828;5.688;2023-02-28T08:58:22;2.45;;;0.43;;
42244;SDS011;27912;51.828;5.688;2023-02-28T09:00:47;1.63;;;0.40;;
42244;SDS011;27912;51.828;5.688;2023-02-28T09:03:13;1.65;;;0.40;;
42244;SDS011;27912;51.828;5.688;2023-02-28T09:05:38;0.90;;;0.40;;
42244;SDS011;27912;51.828;5.688;2023-02-28T09:08:04;0.82;;;0.45;;
42244;SDS011;27912;51.828;5.688;2023-02-28T09:10:30;2.85;;;0.40;;
42244;SDS011;27912;51.828;5.688;2023-02-28T09:12:55;1.63;;;0.45;;
42244;SDS011;27912;51.828;5.688;2023-02-28T09:15:21;1.27;;;0.38;;
42244;SDS011;27912;51.828;5.688;2023-02-28T09:17:46;1.95;;;0.50;;
42244;SDS011;27912;51.828;5.688;2023-02-28T09:20:12;1.92;;;0.35;;
42244;SDS011;27912;51.828;5.688;2023-02-28T09:22:37;1.70;;;0.40;;
42244;SDS011;27912;51.828;5.688;2023-02-28T09:25:03;0.77;;;0.40;;
42244;SDS011;27912;51.828;5.688;2023-02-28T09:27:29;2.22;;;0.38;;
42244;SDS011;27912;51.828;5.688;2023-02-28T09:29:55;1.20;;;0.43;;
42244;SDS011;27912;51.828;5.688;2023-02-28T09:32:20;3.05;;;0.50;;
42244;SDS011;27912;51.828;5.688;2023-02-28T09:34:46;1.52;;;0.50;;
42244;SDS011;27912;51.828;5.688;2023-02-28T09:37:11;1.23;;;0.50;;
42244;SDS011;27912;51.828;5.688;2023-02-28T09:39:37;2.20;;;0.45;;
42244;SDS011;27912;51.828;5.688;2023-02-28T09:42:02;1.52;;;0.50;;
42244;SDS011;27912;51.828;5.688;2023-02-28T09:44:34;1.23;;;0.43;;
42244;SDS011;27912;51.828;5.688;2023-02-28T09:47:13;1.55;;;0.40;;
42244;SDS011;27912;51.828;5.688;2023-02-28T09:49:54;1.67;;;0.53;;
42244;SDS011;27912;51.828;5.688;2023-02-28T09:52:27;3.10;;;0.60;;
42244;SDS011;27912;51.828;5.688;2023-02-28T09:54:55;7.38;;;0.50;;
42244;SDS011;27912;51.828;5.688;2023-02-28T09:57:36;2.08;;;0.50;;
42244;SDS011;27912;51.828;5.688;2023-02-28T10:05:19;1.25;;;0.40;;
42244;SDS011;27912;51.828;5.688;2023-02-28T10:10:54;2.90;;;0.50;;
42244;SDS011;27912;51.828;5.688;2023-02-28T10:16:20;2.15;;;0.50;;
42244;SDS011;27912;51.828;5.688;2023-02-28T10:18:59;1.15;;;0.40;;
42244;SDS011;27912;51.828;5.688;2023-02-28T10:21:35;1.58;;;0.40;;
42244;SDS011;27912;51.828;5.688;2023-02-28T10:24:14;1.88;;;0.60;;
42244;SDS011;27912;51.828;5.688;2023-02-28T10:26:53;3.20;;;0.63;;
42244;SDS011;27912;51.828;5.688;2023-02-28T10:29:24;1.58;;;0.50;;
42244;SDS011;27912;51.828;5.688;2023-02-28T10:31:50;2.03;;;0.40;;
42244;SDS011;27912;51.828;5.688;2023-02-28T10:34:16;2.28;;;0.40;;
42244;SDS011;27912;51.828;5.688;2023-02-28T10:36:41;2.65;;;0.40;;
42244;SDS011;27912;51.828;5.688;2023-02-28T10:42:18;1.40;;;0.50;;
42244;SDS011;27912;51.828;5.688;2023-02-28T10:44:46;1.65;;;0.40;;
42244;SDS011;27912;51.828;5.688;2023-02-28T10:47:16;1.67;;;0.40;;
42244;SDS011;27912;51.828;5.688;2023-02-28T10:49:52;4.25;;;0.60;;
42244;SDS011;27912;51.828;5.688;2023-02-28T10:52:37;1.67;;;0.40;;
42244;SDS011;27912;51.828;5.688;2023-02-28T10:55:26;1.10;;;0.43;;
42244;SDS011;27912;51.828;5.688;2023-02-28T10:57:51;1.40;;;0.40;;
42244;SDS011;27912;51.828;5.688;2023-02-28T11:02:44;0.93;;;0.40;;
42244;SDS011;27912;51.828;5.688;2023-02-28T11:05:24;1.10;;;0.30;;
42244;SDS011;27912;51.828;5.688;2023-02-28T11:08:16;0.85;;;0.30;;
42244;SDS011;27912;51.828;5.688;2023-02-28T11:10:46;1.55;;;0.50;;
42244;SDS011;27912;51.828;5.688;2023-02-28T11:13:19;0.93;;;0.40;;
42244;SDS011;27912;51.828;5.688;2023-02-28T11:15:51;1.15;;;0.40;;
42244;SDS011;27912;51.828;5.688;2023-02-28T11:18:29;1.10;;;0.40;;
42244;SDS011;27912;51.828;5.688;2023-02-28T11:21:01;3.15;;;0.55;;
42244;SDS011;27912;51.828;5.688;2023-02-28T11:23:29;2.15;;;0.50;;
42244;SDS011;27912;51.828;5.688;2023-02-28T11:25:59;1.90;;;0.70;;
42244;SDS011;27912;51.828;5.688;2023-02-28T11:36:27;1.80;;;0.70;;
42244;SDS011;27912;51.828;5.688;2023-02-28T11:38:56;2.10;;;0.60;;
42244;SDS011;27912;51.828;5.688;2023-02-28T11:44:43;2.15;;;0.80;;
42244;SDS011;27912;51.828;5.688;2023-02-28T11:52:52;2.00;;;0.57;;
42244;SDS011;27912;51.828;5.688;2023-02-28T11:55:38;2.05;;;0.70;;
42244;SDS011;27912;51.828;5.688;2023-02-28T12:01:20;2.03;;;0.82;;
42244;SDS011;27912;51.828;5.688;2023-02-28T12:06:45;1.85;;;0.68;;
42244;SDS011;27912;51.828;5.688;2023-02-28T12:12:20;1.40;;;0.60;;
42244;SDS011;27912;51.828;5.688;2023-02-28T12:29:10;1.73;;;0.70;;
42244;SDS011;27912;51.828;5.688;2023-02-28T12:31:56;1.48;;;0.52;;
42244;SDS011;27912;51.828;5.688;2023-02-28T12:34:31;2.67;;;0.60;;
42244;SDS011;27912;51.828;5.688;2023-02-28T12:37:03;2.53;;;0.50;;
42244;SDS011;27912;51.828;5.688;2023-02-28T12:39:36;2.22;;;0.70;;
42244;SDS011;27912;51.828;5.688;2023-02-28T12:42:08;0.93;;;0.40;;
42244;SDS011;27912;51.828;5.688;2023-02-28T12:47:11;2.13;;;0.52;;
42244;SDS011;27912;51.828;5.688;2023-02-28T12:49:50;1.83;;;0.47;;
42244;SDS011;27912;51.828;5.688;2023-02-28T12:52:23;2.08;;;0.60;;
42244;SDS011;27912;51.828;5.688;2023-02-28T12:54:59;1.20;;;0.47;;
42244;SDS011;27912;51.828;5.688;2023-02-28T13:11:24;1.55;;;0.57;;
42244;SDS011;27912;51.828;5.688;2023-02-28T13:13:59;1.30;;;0.45;;
42244;SDS011;27912;51.828;5.688;2023-02-28T13:19:39;2.15;;;0.70;;
42244;SDS011;27912;51.828;5.688;2023-02-28T13:22:18;2.63;;;0.70;;
42244;SDS011;27912;51.828;5.688;2023-02-28T13:24:46;2.35;;;0.50;;
42244;SDS011;27912;51.828;5.688;2023-02-28T13:29:42;2.20;;;0.70;;
42244;SDS011;27912;51.828;5.688;2023-02-28T13:34:35;1.50;;;0.60;;
42244;SDS011;27912;51.828;5.688;2023-02-28T13:39:47;2.95;;;0.70;;
42244;SDS011;27912;51.828;5.688;2023-02-28T13:47:28;1.40;;;0.60;;
42244;SDS011;27912;51.828;5.688;2023-02-28T14:00:43;2.65;;;0.50;;
42244;SDS011;27912;51.828;5.688;2023-02-28T14:03:32;1.00;;;0.43;;
42244;SDS011;27912;51.828;5.688;2023-02-28T14:11:33;0.90;;;0.35;;
42244;SDS011;27912;51.828;5.688;2023-02-28T14:14:05;2.85;;;0.57;;
42244;SDS011;27912;51.828;5.688;2023-02-28T14:16:43;1.33;;;0.60;;
42244;SDS011;27912;51.828;5.688;2023-02-28T14:19:22;1.27;;;0.50;;
42244;SDS011;27912;51.828;5.688;2023-02-28T14:27:58;1.05;;;0.43;;
42244;SDS011;27912;51.828;5.688;2023-02-28T14:30:52;2.95;;;0.52;;
42244;SDS011;27912;51.828;5.688;2023-02-28T14:33:27;1.60;;;0.50;;
42244;SDS011;27912;51.828;5.688;2023-02-28T14:38:51;1.48;;;0.50;;
42244;SDS011;27912;51.828;5.688;2023-02-28T14:41:23;4.22;;;0.50;;
42244;SDS011;27912;51.828;5.688;2023-02-28T14:43:55;1.50;;;0.40;;
42244;SDS011;27912;51.828;5.688;2023-02-28T14:46:23;2.63;;;0.60;;
42244;SDS011;27912;51.828;5.688;2023-02-28T14:48:53;2.17;;;0.50;;
42244;SDS011;27912;51.828;5.688;2023-02-28T14:51:22;1.35;;;0.60;;
42244;SDS011;27912;51.828;5.688;2023-02-28T14:53:50;1.75;;;0.50;;
42244;SDS011;27912;51.828;5.688;2023-02-28T14:56:22;1.53;;;0.33;;
42244;SDS011;27912;51.828;5.688;2023-02-28T14:58:53;1.98;;;0.43;;
42244;SDS011;27912;51.828;5.688;2023-02-28T15:01:21;2.35;;;0.52;;
42244;SDS011;27912;51.828;5.688;2023-02-28T15:03:48;1.77;;;0.60;;
42244;SDS011;27912;51.828;5.688;2023-02-28T15:06:23;2.25;;;0.57;;
42244;SDS011;27912;51.828;5.688;2023-02-28T15:09:05;1.00;;;0.40;;
42244;SDS011;27912;51.828;5.688;2023-02-28T15:11:35;2.55;;;0.50;;
42244;SDS011;27912;51.828;5.688;2023-02-28T15:14:01;1.52;;;0.52;;
42244;SDS011;27912;51.828;5.688;2023-02-28T15:16:31;1.33;;;0.45;;
42244;SDS011;27912;51.828;5.688;2023-02-28T15:22:12;1.38;;;0.50;;
42244;SDS011;27912;51.828;5.688;2023-02-28T15:27:27;1.48;;;0.55;;
42244;SDS011;27912;51.828;5.688;2023-02-28T15:29:58;1.98;;;0.50;;
42244;SDS011;27912;51.828;5.688;2023-02-28T15:37:29;1.60;;;0.50;;
42244;SDS011;27912;51.828;5.688;2023-02-28T15:39:58;2.75;;;0.70;;
42244;SDS011;27912;51.828;5.688;2023-02-28T15:42:35;2.67;;;0.55;;
42244;SDS011;27912;51.828;5.688;2023-02-28T15:45:00;3.67;;;0.70;;
42244;SDS011;27912;51.828;5.688;2023-02-28T15:47:27;1.88;;;0.50;;
42244;SDS011;27912;51.828;5.688;2023-02-28T15:49:58;1.33;;;0.50;;
42244;SDS011;27912;51.828;5.688;2023-02-28T15:52:34;1.80;;;0.63;;
42244;SDS011;27912;51.828;5.688;2023-02-28T15:55:24;4.00;;;0.77;;
42244;SDS011;27912;51.828;5.688;2023-02-28T15:57:53;2.40;;;0.60;;
42244;SDS011;27912;51.828;5.688;2023-02-28T16:00:24;1.27;;;0.55;;
42244;SDS011;27912;51.828;5.688;2023-02-28T16:02:50;4.68;;;2.35;;
42244;SDS011;27912;51.828;5.688;2023-02-28T16:07:53;2.97;;;0.60;;
42244;SDS011;27912;51.828;5.688;2023-02-28T16:10:23;3.58;;;0.93;;
42244;SDS011;27912;51.828;5.688;2023-02-28T16:12:52;1.77;;;0.50;;
42244;SDS011;27912;51.828;5.688;2023-02-28T16:15:20;1.98;;;0.70;;
42244;SDS011;27912;51.828;5.688;2023-02-28T16:17:49;1.70;;;0.50;;
42244;SDS011;27912;51.828;5.688;2023-02-28T16:20:23;2.45;;;0.60;;
42244;SDS011;27912;51.828;5.688;2023-02-28T16:22:53;1.85;;;0.65;;
42244;SDS011;27912;51.828;5.688;2023-02-28T16:25:21;1.88;;;0.70;;
42244;SDS011;27912;51.828;5.688;2023-02-28T16:27:50;2.75;;;0.73;;
42244;SDS011;27912;51.828;5.688;2023-02-28T16:30:25;1.73;;;0.60;;
42244;SDS011;27912;51.828;5.688;2023-02-28T16:32:53;1.67;;;0.50;;
42244;SDS011;27912;51.828;5.688;2023-02-28T16:35:20;3.10;;;0.80;;
42244;SDS011;27912;51.828;5.688;2023-02-28T16:37:46;2.45;;;0.70;;
42244;SDS011;27912;51.828;5.688;2023-02-28T16:40:16;4.25;;;0.80;;
42244;SDS011;27912;51.828;5.688;2023-02-28T16:42:47;2.45;;;0.70;;
42244;SDS011;27912;51.828;5.688;2023-02-28T16:45:18;1.80;;;0.60;;
42244;SDS011;27912;51.828;5.688;2023-02-28T16:47:47;2.38;;;0.93;;
42244;SDS011;27912;51.828;5.688;2023-02-28T16:50:14;2.97;;;0.80;;
42244;SDS011;27912;51.828;5.688;2023-02-28T16:52:45;1.93;;;0.60;;
42244;SDS011;27912;51.828;5.688;2023-02-28T16:55:11;1.83;;;0.60;;
42244;SDS011;27912;51.828;5.688;2023-02-28T16:57:37;3.08;;;0.70;;
42244;SDS011;27912;51.828;5.688;2023-02-28T17:00:04;2.65;;;0.80;;
42244;SDS011;27912;51.828;5.688;2023-02-28T17:02:32;2.35;;;0.90;;
42244;SDS011;27912;51.828;5.688;2023-02-28T17:04:58;1.33;;;0.50;;
42244;SDS011;27912;51.828;5.688;2023-02-28T17:07:24;2.22;;;0.80;;
42244;SDS011;27912;51.828;5.688;2023-02-28T17:09:49;2.92;;;0.70;;
42244;SDS011;27912;51.828;5.688;2023-02-28T17:12:15;2.38;;;0.73;;
42244;SDS011;27912;51.828;5.688;2023-02-28T17:14:40;2.42;;;0.88;;
42244;SDS011;27912;51.828;5.688;2023-02-28T17:17:06;2.30;;;0.90;;
42244;SDS011;27912;51.828;5.688;2023-02-28T17:19:32;2.65;;;1.10;;
42244;SDS011;27912;51.828;5.688;2023-02-28T17:22:00;1.98;;;0.80;;
42244;SDS011;27912;51.828;5.688;2023-02-28T17:24:27;2.20;;;0.80;;
42244;SDS011;27912;51.828;5.688;2023-02-28T17:26:53;3.15;;;0.93;;
42244;SDS011;27912;51.828;5.688;2023-02-28T17:29:20;2.72;;;0.90;;
42244;SDS011;27912;51.828;5.688;2023-02-28T17:31:46;3.63;;;1.45;;
42244;SDS011;27912;51.828;5.688;2023-02-28T17:34:12;4.03;;;1.70;;
42244;SDS011;27912;51.828;5.688;2023-02-28T17:36:43;3.78;;;1.70;;